sensor_id;sensor_type;location;lat;lon;timestamp;temperature;humidity
72440;DHT22;60446;50.752;4.352;2023-05-07T00:00:22;14.00;80.20
72440;DHT22;60446;50.752;4.352;2023-05-07T00:02:49;14.10;80.10
72440;DHT22;60446;50.752;4.352;2023-05-07T00:05:16;14.10;80.00
72440;DHT22;60446;50.752;4.352;2023-05-07T00:07:44;14.10;79.90
72440;DHT22;60446;50.752;4.352;2023-05-07T00:10:11;14.10;79.80
72440;DHT22;60446;50.752;4.352;2023-05-07T00:12:40;14.10;79.50
72440;DHT22;60446;50.752;4.352;2023-05-07T00:15:08;14.10;79.20
72440;DHT22;60446;50.752;4.352;2023-05-07T00:17:36;14.10;79.70
72440;DHT22;60446;50.752;4.352;2023-05-07T00:20:04;14.10;79.60
72440;DHT22;60446;50.752;4.352;2023-05-07T00:22:32;14.10;79.50
72440;DHT22;60446;50.752;4.352;2023-05-07T00:24:59;14.10;79.40
72440;DHT22;60446;50.752;4.352;2023-05-07T00:27:26;14.10;79.10
72440;DHT22;60446;50.752;4.352;2023-05-07T00:29:54;14.10;79.00
72440;DHT22;60446;50.752;4.352;2023-05-07T00:32:21;14.10;79.20
72440;DHT22;60446;50.752;4.352;2023-05-07T00:34:48;14.10;78.80
72440;DHT22;60446;50.752;4.352;2023-05-07T00:37:16;14.10;78.90
72440;DHT22;60446;50.752;4.352;2023-05-07T00:39:43;14.10;78.80
72440;DHT22;60446;50.752;4.352;2023-05-07T00:42:10;14.10;78.30
72440;DHT22;60446;50.752;4.352;2023-05-07T00:44:37;14.10;78.30
72440;DHT22;60446;50.752;4.352;2023-05-07T00:47:05;14.10;78.70
72440;DHT22;60446;50.752;4.352;2023-05-07T00:49:39;14.10;78.60
72440;DHT22;60446;50.752;4.352;2023-05-07T00:52:11;14.10;78.70
72440;DHT22;60446;50.752;4.352;2023-05-07T00:54:41;14.10;78.70
72440;DHT22;60446;50.752;4.352;2023-05-07T00:57:11;14.00;78.70
72440;DHT22;60446;50.752;4.352;2023-05-07T00:59:39;14.10;78.60
72440;DHT22;60446;50.752;4.352;2023-05-07T01:02:07;14.10;78.10
72440;DHT22;60446;50.752;4.352;2023-05-07T01:04:35;14.10;77.90
72440;DHT22;60446;50.752;4.352;2023-05-07T01:07:03;14.00;78.00
72440;DHT22;60446;50.752;4.352;2023-05-07T01:09:31;14.00;78.40
72440;DHT22;60446;50.752;4.352;2023-05-07T01:11:59;14.00;78.40
72440;DHT22;60446;50.752;4.352;2023-05-07T01:14:26;14.00;78.20
72440;DHT22;60446;50.752;4.352;2023-05-07T01:16:54;14.00;78.10
72440;DHT22;60446;50.752;4.352;2023-05-07T01:19:23;14.00;77.90
72440;DHT22;60446;50.752;4.352;2023-05-07T01:21:51;13.90;78.20
72440;DHT22;60446;50.752;4.352;2023-05-07T01:24:25;13.90;77.70
72440;DHT22;60446;50.752;4.352;2023-05-07T01:26:52;13.90;77.90
72440;DHT22;60446;50.752;4.352;2023-05-07T01:29:20;13.90;77.80
72440;DHT22;60446;50.752;4.352;2023-05-07T01:31:48;13.90;77.60
72440;DHT22;60446;50.752;4.352;2023-05-07T01:34:18;13.80;77.60
72440;DHT22;60446;50.752;4.352;2023-05-07T01:36:47;13.70;77.90
72440;DHT22;60446;50.752;4.352;2023-05-07T01:39:15;13.70;78.50
72440;DHT22;60446;50.752;4.352;2023-05-07T01:41:43;13.70;78.60
72440;DHT22;60446;50.752;4.352;2023-05-07T01:44:12;13.70;78.70
72440;DHT22;60446;50.752;4.352;2023-05-07T01:46:40;13.70;78.40
72440;DHT22;60446;50.752;4.352;2023-05-07T01:49:07;13.70;77.50
72440;DHT22;60446;50.752;4.352;2023-05-07T01:51:35;13.60;78.10
72440;DHT22;60446;50.752;4.352;2023-05-07T01:54:03;13.50;78.40
72440;DHT22;60446;50.752;4.352;2023-05-07T01:56:30;13.50;78.50
72440;DHT22;60446;50.752;4.352;2023-05-07T01:58:58;13.40;78.70
72440;DHT22;60446;50.752;4.352;2023-05-07T02:01:26;13.40;78.80
72440;DHT22;60446;50.752;4.352;2023-05-07T02:03:54;13.30;78.90
72440;DHT22;60446;50.752;4.352;2023-05-07T02:06:25;13.30;78.90
72440;DHT22;60446;50.752;4.352;2023-05-07T02:08:56;13.30;79.10
72440;DHT22;60446;50.752;4.352;2023-05-07T02:11:24;13.20;79.20
72440;DHT22;60446;50.752;4.352;2023-05-07T02:13:51;13.20;79.50
72440;DHT22;60446;50.752;4.352;2023-05-07T02:16:19;13.20;79.70
72440;DHT22;60446;50.752;4.352;2023-05-07T02:18:48;13.10;79.50
72440;DHT22;60446;50.752;4.352;2023-05-07T02:21:15;13.10;79.60
72440;DHT22;60446;50.752;4.352;2023-05-07T02:23:42;13.00;79.80
72440;DHT22;60446;50.752;4.352;2023-05-07T02:26:10;13.00;79.70
72440;DHT22;60446;50.752;4.352;2023-05-07T02:28:37;13.00;80.00
72440;DHT22;60446;50.752;4.352;2023-05-07T02:31:05;13.00;80.10
72440;DHT22;60446;50.752;4.352;2023-05-07T02:33:33;13.00;79.80
72440;DHT22;60446;50.752;4.352;2023-05-07T02:36:08;13.00;79.90
72440;DHT22;60446;50.752;4.352;2023-05-07T02:38:43;13.00;80.20
72440;DHT22;60446;50.752;4.352;2023-05-07T02:41:10;12.90;80.00
72440;DHT22;60446;50.752;4.352;2023-05-07T02:43:37;12.90;80.10
72440;DHT22;60446;50.752;4.352;2023-05-07T02:46:06;12.90;80.20
72440;DHT22;60446;50.752;4.352;2023-05-07T02:48:37;12.90;80.30
72440;DHT22;60446;50.752;4.352;2023-05-07T02:51:05;12.90;80.20
72440;DHT22;60446;50.752;4.352;2023-05-07T02:53:34;13.00;80.40
72440;DHT22;60446;50.752;4.352;2023-05-07T02:56:01;13.00;80.20
72440;DHT22;60446;50.752;4.352;2023-05-07T02:58:29;13.00;80.10
72440;DHT22;60446;50.752;4.352;2023-05-07T03:00:57;12.90;80.10
72440;DHT22;60446;50.752;4.352;2023-05-07T03:03:52;12.80;80.40
72440;DHT22;60446;50.752;4.352;2023-05-07T03:06:19;12.90;80.80
72440;DHT22;60446;50.752;4.352;2023-05-07T03:08:46;12.90;80.90
72440;DHT22;60446;50.752;4.352;2023-05-07T03:11:13;13.00;80.50
72440;DHT22;60446;50.752;4.352;2023-05-07T03:13:41;13.00;80.30
72440;DHT22;60446;50.752;4.352;2023-05-07T03:16:08;13.00;80.30
72440;DHT22;60446;50.752;4.352;2023-05-07T03:18:35;13.00;80.70
72440;DHT22;60446;50.752;4.352;2023-05-07T03:21:02;13.00;80.70
72440;DHT22;60446;50.752;4.352;2023-05-07T03:23:29;13.10;80.80
72440;DHT22;60446;50.752;4.352;2023-05-07T03:25:57;13.10;80.80
72440;DHT22;60446;50.752;4.352;2023-05-07T03:28:24;13.20;80.70
72440;DHT22;60446;50.752;4.352;2023-05-07T03:30:56;13.20;80.40
72440;DHT22;60446;50.752;4.352;2023-05-07T03:33:24;13.30;80.50
72440;DHT22;60446;50.752;4.352;2023-05-07T03:35:51;13.30;80.40
72440;DHT22;60446;50.752;4.352;2023-05-07T03:38:22;13.40;80.10
72440;DHT22;60446;50.752;4.352;2023-05-07T03:40:49;13.40;79.90
72440;DHT22;60446;50.752;4.352;2023-05-07T03:43:17;13.40;79.70
72440;DHT22;60446;50.752;4.352;2023-05-07T03:45:49;13.40;79.20
72440;DHT22;60446;50.752;4.352;2023-05-07T03:48:21;13.40;79.50
72440;DHT22;60446;50.752;4.352;2023-05-07T03:50:50;13.50;79.70
72440;DHT22;60446;50.752;4.352;2023-05-07T03:53:19;13.50;79.70
72440;DHT22;60446;50.752;4.352;2023-05-07T03:55:46;13.50;79.40
72440;DHT22;60446;50.752;4.352;2023-05-07T03:58:13;13.50;79.30
72440;DHT22;60446;50.752;4.352;2023-05-07T04:00:40;13.60;79.40
72440;DHT22;60446;50.752;4.352;2023-05-07T04:03:21;13.60;79.30
72440;DHT22;60446;50.752;4.352;2023-05-07T04:05:49;13.60;79.00
72440;DHT22;60446;50.752;4.352;2023-05-07T04:08:16;13.70;78.20
72440;DHT22;60446;50.752;4.352;2023-05-07T04:10:47;13.70;78.70
72440;DHT22;60446;50.752;4.352;2023-05-07T04:13:14;13.70;77.60
72440;DHT22;60446;50.752;4.352;2023-05-07T04:15:42;13.80;77.90
72440;DHT22;60446;50.752;4.352;2023-05-07T04:18:12;13.90;78.50
72440;DHT22;60446;50.752;4.352;2023-05-07T04:20:41;13.90;77.80
72440;DHT22;60446;50.752;4.352;2023-05-07T04:23:11;13.90;77.60
72440;DHT22;60446;50.752;4.352;2023-05-07T04:25:39;13.80;78.00
72440;DHT22;60446;50.752;4.352;2023-05-07T04:28:11;13.80;77.80
72440;DHT22;60446;50.752;4.352;2023-05-07T04:30:40;13.80;77.60
72440;DHT22;60446;50.752;4.352;2023-05-07T04:33:08;13.90;77.90
72440;DHT22;60446;50.752;4.352;2023-05-07T04:35:37;13.80;77.90
72440;DHT22;60446;50.752;4.352;2023-05-07T04:38:05;13.80;78.10
72440;DHT22;60446;50.752;4.352;2023-05-07T04:40:33;13.70;78.20
72440;DHT22;60446;50.752;4.352;2023-05-07T04:43:03;13.70;78.30
72440;DHT22;60446;50.752;4.352;2023-05-07T04:45:34;13.70;78.50
72440;DHT22;60446;50.752;4.352;2023-05-07T04:48:02;13.70;78.70
72440;DHT22;60446;50.752;4.352;2023-05-07T04:50:31;13.70;78.80
72440;DHT22;60446;50.752;4.352;2023-05-07T04:53:01;13.70;78.90
72440;DHT22;60446;50.752;4.352;2023-05-07T04:55:30;13.70;79.40
72440;DHT22;60446;50.752;4.352;2023-05-07T04:57:57;13.70;79.50
72440;DHT22;60446;50.752;4.352;2023-05-07T05:00:24;13.80;79.10
72440;DHT22;60446;50.752;4.352;2023-05-07T05:02:53;13.80;79.10
72440;DHT22;60446;50.752;4.352;2023-05-07T05:05:21;13.80;79.20
72440;DHT22;60446;50.752;4.352;2023-05-07T05:07:51;13.80;79.50
72440;DHT22;60446;50.752;4.352;2023-05-07T05:10:20;13.90;79.70
72440;DHT22;60446;50.752;4.352;2023-05-07T05:12:51;13.90;79.60
72440;DHT22;60446;50.752;4.352;2023-05-07T05:15:19;14.00;79.50
72440;DHT22;60446;50.752;4.352;2023-05-07T05:17:47;14.10;79.70
72440;DHT22;60446;50.752;4.352;2023-05-07T05:20:14;14.10;79.50
72440;DHT22;60446;50.752;4.352;2023-05-07T05:22:42;14.20;79.20
72440;DHT22;60446;50.752;4.352;2023-05-07T05:25:12;14.30;79.30
72440;DHT22;60446;50.752;4.352;2023-05-07T05:27:39;14.30;78.50
72440;DHT22;60446;50.752;4.352;2023-05-07T05:30:07;14.30;78.20
72440;DHT22;60446;50.752;4.352;2023-05-07T05:32:36;14.30;78.60
72440;DHT22;60446;50.752;4.352;2023-05-07T05:35:04;14.40;78.80
72440;DHT22;60446;50.752;4.352;2023-05-07T05:37:32;14.40;79.30
72440;DHT22;60446;50.752;4.352;2023-05-07T05:40:02;14.50;79.30
72440;DHT22;60446;50.752;4.352;2023-05-07T05:42:30;14.70;78.10
72440;DHT22;60446;50.752;4.352;2023-05-07T05:44:57;14.80;76.30
72440;DHT22;60446;50.752;4.352;2023-05-07T05:47:25;14.80;77.30
72440;DHT22;60446;50.752;4.352;2023-05-07T05:49:55;14.70;76.80
72440;DHT22;60446;50.752;4.352;2023-05-07T05:52:22;14.60;78.00
72440;DHT22;60446;50.752;4.352;2023-05-07T05:54:50;14.60;78.30
72440;DHT22;60446;50.752;4.352;2023-05-07T05:57:18;14.60;77.70
72440;DHT22;60446;50.752;4.352;2023-05-07T05:59:46;14.50;76.90
72440;DHT22;60446;50.752;4.352;2023-05-07T06:02:14;14.50;76.50
72440;DHT22;60446;50.752;4.352;2023-05-07T06:04:41;14.50;77.10
72440;DHT22;60446;50.752;4.352;2023-05-07T06:07:12;14.50;77.20
72440;DHT22;60446;50.752;4.352;2023-05-07T06:09:39;14.50;78.10
72440;DHT22;60446;50.752;4.352;2023-05-07T06:12:07;14.50;77.90
72440;DHT22;60446;50.752;4.352;2023-05-07T06:14:35;14.40;78.00
72440;DHT22;60446;50.752;4.352;2023-05-07T06:17:02;14.40;77.90
72440;DHT22;60446;50.752;4.352;2023-05-07T06:19:29;14.40;77.70
72440;DHT22;60446;50.752;4.352;2023-05-07T06:21:57;14.40;78.50
72440;DHT22;60446;50.752;4.352;2023-05-07T06:24:28;14.50;78.50
72440;DHT22;60446;50.752;4.352;2023-05-07T06:26:55;14.50;78.00
72440;DHT22;60446;50.752;4.352;2023-05-07T06:29:26;14.50;77.50
72440;DHT22;60446;50.752;4.352;2023-05-07T06:31:54;14.50;77.40
72440;DHT22;60446;50.752;4.352;2023-05-07T06:34:22;14.60;77.70
72440;DHT22;60446;50.752;4.352;2023-05-07T06:36:50;14.60;77.60
72440;DHT22;60446;50.752;4.352;2023-05-07T06:39:27;14.60;77.50
72440;DHT22;60446;50.752;4.352;2023-05-07T06:41:54;14.60;78.10
72440;DHT22;60446;50.752;4.352;2023-05-07T06:44:26;14.70;78.30
72440;DHT22;60446;50.752;4.352;2023-05-07T06:47:06;14.70;78.60
72440;DHT22;60446;50.752;4.352;2023-05-07T06:49:34;14.70;78.80
72440;DHT22;60446;50.752;4.352;2023-05-07T06:52:01;14.80;79.20
72440;DHT22;60446;50.752;4.352;2023-05-07T06:54:29;14.90;79.30
72440;DHT22;60446;50.752;4.352;2023-05-07T06:56:57;14.80;79.40
72440;DHT22;60446;50.752;4.352;2023-05-07T06:59:26;14.90;79.10
72440;DHT22;60446;50.752;4.352;2023-05-07T07:01:54;14.90;79.50
72440;DHT22;60446;50.752;4.352;2023-05-07T07:04:21;14.80;79.40
72440;DHT22;60446;50.752;4.352;2023-05-07T07:06:59;14.80;79.90
72440;DHT22;60446;50.752;4.352;2023-05-07T07:09:28;14.70;79.80
72440;DHT22;60446;50.752;4.352;2023-05-07T07:11:55;14.70;80.70
72440;DHT22;60446;50.752;4.352;2023-05-07T07:14:23;14.80;80.90
72440;DHT22;60446;50.752;4.352;2023-05-07T07:16:52;14.80;81.00
72440;DHT22;60446;50.752;4.352;2023-05-07T07:19:21;14.90;81.50
72440;DHT22;60446;50.752;4.352;2023-05-07T07:21:52;14.90;81.30
72440;DHT22;60446;50.752;4.352;2023-05-07T07:24:19;14.90;80.90
72440;DHT22;60446;50.752;4.352;2023-05-07T07:26:52;15.00;80.70
72440;DHT22;60446;50.752;4.352;2023-05-07T07:29:20;15.00;81.10
72440;DHT22;60446;50.752;4.352;2023-05-07T07:31:48;14.90;80.30
72440;DHT22;60446;50.752;4.352;2023-05-07T07:34:18;14.90;81.00
72440;DHT22;60446;50.752;4.352;2023-05-07T07:36:45;15.00;80.80
72440;DHT22;60446;50.752;4.352;2023-05-07T07:39:16;15.00;81.10
72440;DHT22;60446;50.752;4.352;2023-05-07T07:41:44;15.10;80.70
72440;DHT22;60446;50.752;4.352;2023-05-07T07:44:12;15.20;80.30
72440;DHT22;60446;50.752;4.352;2023-05-07T07:46:45;15.20;80.70
72440;DHT22;60446;50.752;4.352;2023-05-07T07:49:14;15.20;80.60
72440;DHT22;60446;50.752;4.352;2023-05-07T07:51:42;15.20;80.80
72440;DHT22;60446;50.752;4.352;2023-05-07T07:54:10;15.20;80.80
72440;DHT22;60446;50.752;4.352;2023-05-07T07:56:38;15.20;80.00
72440;DHT22;60446;50.752;4.352;2023-05-07T07:59:06;15.20;80.50
72440;DHT22;60446;50.752;4.352;2023-05-07T08:01:36;15.30;80.40
72440;DHT22;60446;50.752;4.352;2023-05-07T08:04:04;15.30;81.10
72440;DHT22;60446;50.752;4.352;2023-05-07T08:06:36;15.20;80.00
72440;DHT22;60446;50.752;4.352;2023-05-07T08:09:03;15.30;81.30
72440;DHT22;60446;50.752;4.352;2023-05-07T08:11:31;15.40;81.50
72440;DHT22;60446;50.752;4.352;2023-05-07T08:13:58;15.40;82.20
72440;DHT22;60446;50.752;4.352;2023-05-07T08:16:26;15.50;81.20
72440;DHT22;60446;50.752;4.352;2023-05-07T08:18:53;15.50;80.60
72440;DHT22;60446;50.752;4.352;2023-05-07T08:21:22;15.50;80.70
72440;DHT22;60446;50.752;4.352;2023-05-07T08:23:49;15.50;80.90
72440;DHT22;60446;50.752;4.352;2023-05-07T08:26:17;15.50;80.80
72440;DHT22;60446;50.752;4.352;2023-05-07T08:28:44;15.50;80.90
72440;DHT22;60446;50.752;4.352;2023-05-07T08:31:11;15.60;80.40
72440;DHT22;60446;50.752;4.352;2023-05-07T08:33:40;15.60;80.70
72440;DHT22;60446;50.752;4.352;2023-05-07T08:36:07;15.60;80.30
72440;DHT22;60446;50.752;4.352;2023-05-07T08:38:34;15.60;80.00
72440;DHT22;60446;50.752;4.352;2023-05-07T08:41:02;15.70;80.60
72440;DHT22;60446;50.752;4.352;2023-05-07T08:43:31;15.60;79.50
72440;DHT22;60446;50.752;4.352;2023-05-07T08:46:01;15.60;81.00
72440;DHT22;60446;50.752;4.352;2023-05-07T08:48:32;15.50;81.80
72440;DHT22;60446;50.752;4.352;2023-05-07T08:51:14;15.50;82.00
72440;DHT22;60446;50.752;4.352;2023-05-07T08:53:44;15.50;81.10
72440;DHT22;60446;50.752;4.352;2023-05-07T08:56:16;15.60;81.90
72440;DHT22;60446;50.752;4.352;2023-05-07T08:58:47;15.70;81.60
72440;DHT22;60446;50.752;4.352;2023-05-07T09:01:16;15.70;81.00
72440;DHT22;60446;50.752;4.352;2023-05-07T09:03:47;15.90;78.50
72440;DHT22;60446;50.752;4.352;2023-05-07T09:06:16;16.10;78.70
72440;DHT22;60446;50.752;4.352;2023-05-07T09:08:52;16.20;78.80
72440;DHT22;60446;50.752;4.352;2023-05-07T09:11:24;16.20;80.50
72440;DHT22;60446;50.752;4.352;2023-05-07T09:13:55;16.30;80.70
72440;DHT22;60446;50.752;4.352;2023-05-07T09:16:25;16.30;80.20
72440;DHT22;60446;50.752;4.352;2023-05-07T09:18:54;16.40;79.90
72440;DHT22;60446;50.752;4.352;2023-05-07T09:21:23;16.50;79.90
72440;DHT22;60446;50.752;4.352;2023-05-07T09:23:55;16.60;80.40
72440;DHT22;60446;50.752;4.352;2023-05-07T09:26:33;16.50;80.30
72440;DHT22;60446;50.752;4.352;2023-05-07T09:29:03;16.40;80.40
72440;DHT22;60446;50.752;4.352;2023-05-07T09:31:30;16.40;80.50
72440;DHT22;60446;50.752;4.352;2023-05-07T09:33:57;16.50;81.80
72440;DHT22;60446;50.752;4.352;2023-05-07T09:36:28;16.50;81.90
72440;DHT22;60446;50.752;4.352;2023-05-07T09:38:59;16.50;79.30
72440;DHT22;60446;50.752;4.352;2023-05-07T09:41:30;16.60;80.60
72440;DHT22;60446;50.752;4.352;2023-05-07T09:44:12;16.50;80.20
72440;DHT22;60446;50.752;4.352;2023-05-07T09:46:47;16.50;80.20
72440;DHT22;60446;50.752;4.352;2023-05-07T09:49:29;16.50;81.00
72440;DHT22;60446;50.752;4.352;2023-05-07T09:52:03;16.60;81.20
72440;DHT22;60446;50.752;4.352;2023-05-07T09:54:40;16.60;80.30
72440;DHT22;60446;50.752;4.352;2023-05-07T09:57:13;16.60;81.30
72440;DHT22;60446;50.752;4.352;2023-05-07T09:59:44;16.60;79.90
72440;DHT22;60446;50.752;4.352;2023-05-07T10:02:16;16.60;79.70
72440;DHT22;60446;50.752;4.352;2023-05-07T10:04:48;16.60;80.50
72440;DHT22;60446;50.752;4.352;2023-05-07T10:07:20;16.60;80.20
72440;DHT22;60446;50.752;4.352;2023-05-07T10:09:51;16.50;81.50
72440;DHT22;60446;50.752;4.352;2023-05-07T10:12:30;16.50;79.40
72440;DHT22;60446;50.752;4.352;2023-05-07T10:15:07;16.40;80.80
72440;DHT22;60446;50.752;4.352;2023-05-07T10:17:36;16.30;80.70
72440;DHT22;60446;50.752;4.352;2023-05-07T10:20:09;16.30;80.90
72440;DHT22;60446;50.752;4.352;2023-05-07T10:22:42;16.30;80.70
72440;DHT22;60446;50.752;4.352;2023-05-07T10:25:33;16.30;80.90
72440;DHT22;60446;50.752;4.352;2023-05-07T10:28:08;16.40;81.40
72440;DHT22;60446;50.752;4.352;2023-05-07T10:31:04;16.50;80.90
72440;DHT22;60446;50.752;4.352;2023-05-07T10:33:43;16.60;80.60
72440;DHT22;60446;50.752;4.352;2023-05-07T10:36:13;16.60;81.00
72440;DHT22;60446;50.752;4.352;2023-05-07T10:38:40;16.70;80.40
72440;DHT22;60446;50.752;4.352;2023-05-07T10:41:09;16.70;79.50
72440;DHT22;60446;50.752;4.352;2023-05-07T10:43:41;16.90;79.10
72440;DHT22;60446;50.752;4.352;2023-05-07T10:46:21;17.00;77.70
72440;DHT22;60446;50.752;4.352;2023-05-07T10:49:09;17.10;79.30
72440;DHT22;60446;50.752;4.352;2023-05-07T10:52:16;17.20;79.80
72440;DHT22;60446;50.752;4.352;2023-05-07T10:55:19;17.30;78.20
72440;DHT22;60446;50.752;4.352;2023-05-07T11:01:10;17.40;78.20
72440;DHT22;60446;50.752;4.352;2023-05-07T11:04:12;17.40;78.80
72440;DHT22;60446;50.752;4.352;2023-05-07T11:15:39;17.50;78.60
72440;DHT22;60446;50.752;4.352;2023-05-07T11:18:21;17.50;77.40
72440;DHT22;60446;50.752;4.352;2023-05-07T11:20:54;17.40;77.90
72440;DHT22;60446;50.752;4.352;2023-05-07T11:26:15;17.40;78.60
72440;DHT22;60446;50.752;4.352;2023-05-07T11:28:44;17.40;77.20
72440;DHT22;60446;50.752;4.352;2023-05-07T11:31:11;17.50;78.30
72440;DHT22;60446;50.752;4.352;2023-05-07T11:33:39;17.60;78.50
72440;DHT22;60446;50.752;4.352;2023-05-07T11:36:13;17.70;79.30
72440;DHT22;60446;50.752;4.352;2023-05-07T11:38:45;17.80;77.80
72440;DHT22;60446;50.752;4.352;2023-05-07T11:41:12;18.00;77.80
72440;DHT22;60446;50.752;4.352;2023-05-07T11:43:57;18.00;76.50
72440;DHT22;60446;50.752;4.352;2023-05-07T11:46:26;18.10;77.40
72440;DHT22;60446;50.752;4.352;2023-05-07T11:48:55;18.10;77.30
72440;DHT22;60446;50.752;4.352;2023-05-07T11:51:24;18.00;74.90
72440;DHT22;60446;50.752;4.352;2023-05-07T11:53:53;18.10;76.20
72440;DHT22;60446;50.752;4.352;2023-05-07T11:56:20;18.10;76.70
72440;DHT22;60446;50.752;4.352;2023-05-07T11:58:48;18.20;76.50
72440;DHT22;60446;50.752;4.352;2023-05-07T12:01:16;18.20;75.80
72440;DHT22;60446;50.752;4.352;2023-05-07T12:03:44;18.20;76.20
72440;DHT22;60446;50.752;4.352;2023-05-07T12:06:15;18.30;76.00
72440;DHT22;60446;50.752;4.352;2023-05-07T12:08:44;18.40;75.60
72440;DHT22;60446;50.752;4.352;2023-05-07T12:11:16;18.50;76.20
72440;DHT22;60446;50.752;4.352;2023-05-07T12:13:49;18.60;74.20
72440;DHT22;60446;50.752;4.352;2023-05-07T12:16:16;18.60;76.10
72440;DHT22;60446;50.752;4.352;2023-05-07T12:18:45;18.50;75.60
72440;DHT22;60446;50.752;4.352;2023-05-07T12:21:13;18.50;76.70
72440;DHT22;60446;50.752;4.352;2023-05-07T12:23:40;18.60;75.90
72440;DHT22;60446;50.752;4.352;2023-05-07T12:26:08;18.70;75.40
72440;DHT22;60446;50.752;4.352;2023-05-07T12:28:39;18.80;74.30
72440;DHT22;60446;50.752;4.352;2023-05-07T12:31:07;18.80;74.70
72440;DHT22;60446;50.752;4.352;2023-05-07T12:33:35;18.70;75.10
72440;DHT22;60446;50.752;4.352;2023-05-07T12:36:05;18.60;75.30
72440;DHT22;60446;50.752;4.352;2023-05-07T12:38:38;18.50;75.20
72440;DHT22;60446;50.752;4.352;2023-05-07T12:41:08;18.60;75.60
72440;DHT22;60446;50.752;4.352;2023-05-07T12:43:37;18.60;76.20
72440;DHT22;60446;50.752;4.352;2023-05-07T12:46:06;18.50;75.10
72440;DHT22;60446;50.752;4.352;2023-05-07T12:48:37;18.60;75.90
72440;DHT22;60446;50.752;4.352;2023-05-07T12:51:05;18.60;74.30
72440;DHT22;60446;50.752;4.352;2023-05-07T12:53:40;18.60;75.40
72440;DHT22;60446;50.752;4.352;2023-05-07T12:56:09;18.70;76.50
72440;DHT22;60446;50.752;4.352;2023-05-07T12:58:36;18.70;74.40
72440;DHT22;60446;50.752;4.352;2023-05-07T13:01:07;18.70;76.00
72440;DHT22;60446;50.752;4.352;2023-05-07T13:03:38;18.70;74.20
72440;DHT22;60446;50.752;4.352;2023-05-07T13:06:07;18.70;75.20
72440;DHT22;60446;50.752;4.352;2023-05-07T13:08:42;18.60;75.30
72440;DHT22;60446;50.752;4.352;2023-05-07T13:11:13;18.50;74.90
72440;DHT22;60446;50.752;4.352;2023-05-07T13:13:41;18.50;76.90
72440;DHT22;60446;50.752;4.352;2023-05-07T13:16:10;18.60;76.70
72440;DHT22;60446;50.752;4.352;2023-05-07T13:18:39;18.60;75.00
72440;DHT22;60446;50.752;4.352;2023-05-07T13:21:07;18.60;76.40
72440;DHT22;60446;50.752;4.352;2023-05-07T13:23:35;18.50;76.30
72440;DHT22;60446;50.752;4.352;2023-05-07T13:26:02;18.50;76.10
72440;DHT22;60446;50.752;4.352;2023-05-07T13:28:40;18.50;75.70
72440;DHT22;60446;50.752;4.352;2023-05-07T13:31:08;18.50;76.30
72440;DHT22;60446;50.752;4.352;2023-05-07T13:33:36;18.50;75.70
72440;DHT22;60446;50.752;4.352;2023-05-07T13:36:03;18.40;76.70
72440;DHT22;60446;50.752;4.352;2023-05-07T13:38:32;18.30;75.80
72440;DHT22;60446;50.752;4.352;2023-05-07T13:40:59;18.30;76.70
72440;DHT22;60446;50.752;4.352;2023-05-07T13:43:26;18.30;77.10
72440;DHT22;60446;50.752;4.352;2023-05-07T13:45:53;18.30;77.50
72440;DHT22;60446;50.752;4.352;2023-05-07T13:48:21;18.30;76.90
72440;DHT22;60446;50.752;4.352;2023-05-07T13:50:48;18.40;76.70
72440;DHT22;60446;50.752;4.352;2023-05-07T13:53:15;18.50;76.90
72440;DHT22;60446;50.752;4.352;2023-05-07T13:55:45;18.50;77.70
72440;DHT22;60446;50.752;4.352;2023-05-07T13:58:13;18.60;77.40
72440;DHT22;60446;50.752;4.352;2023-05-07T14:00:40;18.60;75.00
72440;DHT22;60446;50.752;4.352;2023-05-07T14:03:07;18.70;74.80
72440;DHT22;60446;50.752;4.352;2023-05-07T14:05:34;18.60;74.10
72440;DHT22;60446;50.752;4.352;2023-05-07T14:08:02;18.60;73.90
72440;DHT22;60446;50.752;4.352;2023-05-07T14:10:31;18.60;74.00
72440;DHT22;60446;50.752;4.352;2023-05-07T14:13:01;18.60;75.20
72440;DHT22;60446;50.752;4.352;2023-05-07T14:15:28;18.70;74.30
72440;DHT22;60446;50.752;4.352;2023-05-07T14:17:56;18.60;74.20
72440;DHT22;60446;50.752;4.352;2023-05-07T14:20:25;18.40;75.30
72440;DHT22;60446;50.752;4.352;2023-05-07T14:22:52;18.30;75.70
72440;DHT22;60446;50.752;4.352;2023-05-07T14:25:21;18.20;76.40
72440;DHT22;60446;50.752;4.352;2023-05-07T14:27:50;18.20;77.00
72440;DHT22;60446;50.752;4.352;2023-05-07T14:30:18;18.00;76.90
72440;DHT22;60446;50.752;4.352;2023-05-07T14:32:45;17.90;78.00
72440;DHT22;60446;50.752;4.352;2023-05-07T14:35:12;17.90;76.20
72440;DHT22;60446;50.752;4.352;2023-05-07T14:37:39;18.00;77.50
72440;DHT22;60446;50.752;4.352;2023-05-07T14:40:07;18.10;76.80
72440;DHT22;60446;50.752;4.352;2023-05-07T14:42:35;18.10;77.20
72440;DHT22;60446;50.752;4.352;2023-05-07T14:45:03;18.10;77.00
72440;DHT22;60446;50.752;4.352;2023-05-07T14:47:30;18.20;77.20
72440;DHT22;60446;50.752;4.352;2023-05-07T14:49:58;18.20;77.00
72440;DHT22;60446;50.752;4.352;2023-05-07T14:52:28;18.20;76.00
72440;DHT22;60446;50.752;4.352;2023-05-07T14:54:55;18.30;76.50
72440;DHT22;60446;50.752;4.352;2023-05-07T14:57:22;18.10;76.40
72440;DHT22;60446;50.752;4.352;2023-05-07T14:59:49;18.00;77.10
72440;DHT22;60446;50.752;4.352;2023-05-07T15:02:16;17.90;77.70
72440;DHT22;60446;50.752;4.352;2023-05-07T15:04:47;17.80;77.60
72440;DHT22;60446;50.752;4.352;2023-05-07T15:07:15;17.70;78.20
72440;DHT22;60446;50.752;4.352;2023-05-07T15:09:43;17.60;79.30
72440;DHT22;60446;50.752;4.352;2023-05-07T15:12:11;17.60;79.70
72440;DHT22;60446;50.752;4.352;2023-05-07T15:14:38;17.50;78.90
72440;DHT22;60446;50.752;4.352;2023-05-07T15:17:06;17.50;79.60
72440;DHT22;60446;50.752;4.352;2023-05-07T15:19:34;17.50;78.50
72440;DHT22;60446;50.752;4.352;2023-05-07T15:22:01;17.60;78.60
72440;DHT22;60446;50.752;4.352;2023-05-07T15:24:29;17.80;79.40
72440;DHT22;60446;50.752;4.352;2023-05-07T15:26:57;17.80;78.00
72440;DHT22;60446;50.752;4.352;2023-05-07T15:29:29;17.90;77.40
72440;DHT22;60446;50.752;4.352;2023-05-07T15:31:58;18.00;77.80
72440;DHT22;60446;50.752;4.352;2023-05-07T15:34:25;18.00;78.80
72440;DHT22;60446;50.752;4.352;2023-05-07T15:36:52;17.90;77.20
72440;DHT22;60446;50.752;4.352;2023-05-07T15:39:19;17.80;76.80
72440;DHT22;60446;50.752;4.352;2023-05-07T15:41:50;17.70;77.80
72440;DHT22;60446;50.752;4.352;2023-05-07T15:44:17;17.60;78.80
72440;DHT22;60446;50.752;4.352;2023-05-07T15:46:45;17.60;78.00
72440;DHT22;60446;50.752;4.352;2023-05-07T15:49:12;17.60;78.90
72440;DHT22;60446;50.752;4.352;2023-05-07T15:51:39;17.70;78.90
72440;DHT22;60446;50.752;4.352;2023-05-07T15:54:06;17.70;77.60
72440;DHT22;60446;50.752;4.352;2023-05-07T15:56:33;17.70;78.30
72440;DHT22;60446;50.752;4.352;2023-05-07T15:59:00;17.70;78.00